Time;durP1;ratioP1;P1;durP2;ratioP2;P2;SDS_P1;SDS_P2;PMS_P1;PMS_P2;Temp;Humidity;BMP_temperature;BMP_pressure;BME280_temperature;BME280_humidity;BME280_pressure;Samples;Min_cycle;Max_cycle;Signal;HPM_P1;HPM_P2
2023/12/17 00:01:12;;;;;;;8.70;4.70;;;;;;;2.08;95.57;98344.77;108008;1280;25303;-77
2023/12/17 00:03:56;;;;;;;8.80;5.60;;;;;;;2.06;95.44;98351.10;107943;1282;22529;-78
2023/12/17 00:06:27;;;;;;;13.60;5.40;;;;;;;2.04;95.42;98354.30;107941;1277;24273;-78
2023/12/17 00:08:55;;;;;;;9.80;5.50;;;;;;;2.05;95.26;98357.17;107963;1281;27639;-78
2023/12/17 00:11:24;;;;;;;10.30;6.40;;;;;;;2.05;95.31;98357.13;107991;1274;24234;-78
2023/12/17 00:13:52;;;;;;;15.40;6.80;;;;;;;2.03;95.49;98350.06;107967;1281;22554;-78
2023/12/17 00:16:21;;;;;;;9.50;6.10;;;;;;;2.01;95.54;98351.98;107972;1281;25499;-78
2023/12/17 00:18:49;;;;;;;11.40;6.10;;;;;;;1.97;95.56;98342.93;108017;1281;22559;-78
2023/12/17 00:21:17;;;;;;;9.70;5.30;;;;;;;1.92;95.52;98340.21;108018;1279;22631;-78
2023/12/17 00:23:46;;;;;;;12.90;6.40;;;;;;;1.88;95.51;98342.48;108021;1275;22537;-78
2023/12/17 00:26:15;;;;;;;12.50;5.90;;;;;;;1.84;95.73;98340.80;107996;1281;22561;-78
2023/12/17 00:28:42;;;;;;;;;;;;;;;1.82;95.82;98346.39;107948;1275;22535;-78
2023/12/17 00:31:10;;;;;;;14.40;6.40;;;;;;;1.83;95.83;98360.66;107990;1274;22536;-78
2023/12/17 00:33:39;;;;;;;12.50;6.30;;;;;;;1.83;96.00;98359.79;107982;1281;22536;-78
2023/12/17 00:36:10;;;;;;;8.00;5.30;;;;;;;1.82;96.07;98356.35;107938;1281;25364;-78
2023/12/17 00:38:41;;;;;;;10.30;5.90;;;;;;;1.83;95.97;98358.23;108034;1281;26453;-78
2023/12/17 00:41:13;;;;;;;10.90;5.90;;;;;;;1.84;96.12;98349.39;108041;1281;24244;-78
2023/12/17 00:43:41;;;;;;;11.30;5.70;;;;;;;1.80;96.04;98334.77;107997;1274;22534;-78
2023/12/17 00:46:12;;;;;;;10.30;6.00;;;;;;;1.78;96.06;98328.19;107949;1274;22584;-78
2023/12/17 00:48:41;;;;;;;11.10;6.20;;;;;;;1.79;96.13;98320.60;107991;1281;22543;-78
2023/12/17 00:51:13;;;;;;;7.40;5.20;;;;;;;1.81;96.17;98313.75;107991;1281;22547;-77
2023/12/17 00:53:41;;;;;;;10.00;6.00;;;;;;;1.79;96.19;98323.86;107999;1281;22541;-77
2023/12/17 00:56:10;;;;;;;10.20;6.20;;;;;;;1.80;96.09;98322.26;107983;1280;24156;-77
2023/12/17 00:58:38;;;;;;;12.90;5.90;;;;;;;1.82;96.16;98314.55;108017;1281;22546;-78
2023/12/17 01:01:07;;;;;;;10.90;6.30;;;;;;;1.79;96.20;98329.45;107977;1281;22943;-77
2023/12/17 01:03:38;;;;;;;9.50;4.90;;;;;;;1.78;96.21;98337.40;107949;1274;22518;-78
2023/12/17 01:06:07;;;;;;;11.40;6.00;;;;;;;1.79;96.21;98328.15;107905;1281;22529;-77
2023/12/17 01:08:35;;;;;;;9.20;5.50;;;;;;;1.76;96.28;98317.23;107973;1281;22586;-78
2023/12/17 01:11:07;;;;;;;12.60;6.70;;;;;;;1.76;96.22;98310.99;107976;1281;24791;-77
2023/12/17 01:13:38;;;;;;;12.30;6.50;;;;;;;1.75;96.34;98304.34;107864;1281;22580;-77
2023/12/17 01:16:09;;;;;;;11.10;5.90;;;;;;;1.74;96.35;98302.77;107983;1281;22664;-77
2023/12/17 01:18:37;;;;;;;12.00;6.20;;;;;;;1.74;96.27;98299.75;108002;1274;22553;-78
2023/12/17 01:21:07;;;;;;;10.70;6.20;;;;;;;1.74;96.31;98298.66;108004;1281;22634;-78
2023/12/17 01:23:38;;;;;;;10.70;6.80;;;;;;;1.76;96.47;98298.12;107933;1281;22558;-77
2023/12/17 01:26:07;;;;;;;11.40;6.50;;;;;;;1.76;96.34;98289.95;107963;1281;22546;-77
2023/12/17 01:28:38;;;;;;;11.90;6.70;;;;;;;1.74;96.32;98283.38;108010;1275;24279;-78
2023/12/17 01:31:08;;;;;;;13.70;6.40;;;;;;;1.73;96.38;98276.70;107966;1281;22554;-77
2023/12/17 01:33:37;;;;;;;12.20;6.30;;;;;;;1.74;96.43;98274.96;107981;1281;22560;-78
2023/12/17 01:36:06;;;;;;;11.00;6.30;;;;;;;1.75;96.45;98266.33;107984;1274;22857;-78
2023/12/17 01:38:35;;;;;;;11.90;6.30;;;;;;;1.77;96.49;98264.54;108048;1281;22534;-78
2023/12/17 01:41:06;;;;;;;9.70;5.80;;;;;;;1.83;96.62;98260.23;107978;1279;22550;-78
2023/12/17 01:43:35;;;;;;;10.30;6.50;;;;;;;1.89;96.73;98259.98;108020;1281;24745;-78
2023/12/17 01:46:03;;;;;;;9.30;4.30;;;;;;;1.97;96.78;98281.73;107978;1281;27116;-78
2023/12/17 01:48:32;;;;;;;10.00;5.80;;;;;;;2.10;96.37;98283.95;107941;1281;25299;-78
2023/12/17 01:51:00;;;;;;;13.90;5.90;;;;;;;2.16;96.06;98286.13;107959;1281;22653;-78
2023/12/17 01:53:29;;;;;;;10.30;6.30;;;;;;;2.17;95.99;98284.16;107987;1281;25440;-78
2023/12/17 01:55:58;;;;;;;10.80;5.70;;;;;;;2.20;95.94;98285.40;107920;1281;22599;-78
2023/12/17 01:58:27;;;;;;;8.90;5.80;;;;;;;2.18;95.81;98288.04;107947;1272;25431;-77
2023/12/17 02:00:57;;;;;;;9.50;5.40;;;;;;;2.17;95.76;98292.41;107972;1281;22659;-77
2023/12/17 02:03:26;;;;;;;9.90;6.20;;;;;;;2.15;95.79;98285.80;107945;1280;22579;-78
2023/12/17 02:05:54;;;;;;;9.80;5.70;;;;;;;2.12;95.71;98289.90;107928;1281;24337;-77
2023/12/17 02:08:25;;;;;;;9.20;6.00;;;;;;;2.10;95.75;98297.55;107956;1280;22546;-77
2023/12/17 02:10:54;;;;;;;9.30;5.20;;;;;;;2.07;95.61;98301.41;107955;1281;22558;-77
2023/12/17 02:13:22;;;;;;;7.60;4.50;;;;;;;2.05;95.66;98302.16;107977;1281;22584;-77
2023/12/17 02:15:51;;;;;;;7.10;4.70;;;;;;;2.05;95.67;98309.53;107932;1281;22541;-77
2023/12/17 02:18:19;;;;;;;11.50;5.90;;;;;;;2.04;95.59;98311.52;107964;1281;22540;-77
2023/12/17 02:20:47;;;;;;;8.10;5.50;;;;;;;2.06;95.74;98320.73;107977;1280;26569;-77
2023/12/17 02:23:17;;;;;;;8.00;5.20;;;;;;;2.05;95.59;98320.64;107935;1281;23533;-77
2023/12/17 02:25:45;;;;;;;8.50;4.60;;;;;;;2.03;95.62;98311.67;107984;1259;22565;-77
2023/12/17 02:28:14;;;;;;;9.90;6.10;;;;;;;2.00;95.55;98307.21;107895;1274;22531;-77
2023/12/17 02:30:44;;;;;;;10.80;5.90;;;;;;;1.97;95.53;98302.34;107910;1281;22573;-77
2023/12/17 02:33:13;;;;;;;10.70;6.40;;;;;;;1.95;95.52;98293.58;107991;1281;22547;-77
2023/12/17 02:35:41;;;;;;;9.60;6.20;;;;;;;1.95;95.68;98290.52;107930;1281;22551;-77
2023/12/17 02:38:12;;;;;;;8.80;4.60;;;;;;;1.94;95.55;98284.15;107935;1281;22947;-78
2023/12/17 02:40:45;;;;;;;10.70;6.00;;;;;;;1.94;95.63;98262.09;107964;1262;22545;-77
2023/12/17 02:43:13;;;;;;;9.50;5.30;;;;;;;1.96;95.78;98253.99;107952;1274;24293;-77
2023/12/17 02:45:42;;;;;;;9.60;6.20;;;;;;;2.00;95.85;98255.59;107834;1277;22665;-77
2023/12/17 02:48:10;;;;;;;9.70;6.40;;;;;;;1.99;95.77;98253.16;107990;1281;22536;-78
2023/12/17 02:50:38;;;;;;;10.20;6.60;;;;;;;1.98;95.75;98252.54;107960;1275;22537;-78
2023/12/17 02:53:09;;;;;;;7.20;4.80;;;;;;;1.97;95.79;98251.01;107960;1281;22559;-78
2023/12/17 02:55:37;;;;;;;9.80;4.90;;;;;;;1.99;95.67;98251.84;107943;1281;27023;-78
2023/12/17 02:58:09;;;;;;;11.00;5.60;;;;;;;2.05;95.71;98250.58;107906;1275;22555;-78
2023/12/17 03:00:36;;;;;;;;;;;;;;;2.08;95.68;98242.48;107931;1274;25494;-78
2023/12/17 03:03:05;;;;;;;11.10;6.20;;;;;;;2.15;95.83;98253.27;107959;1281;25369;-78
2023/12/17 03:05:34;;;;;;;11.20;6.70;;;;;;;2.19;95.79;98251.45;107946;1274;22534;-78
2023/12/17 03:08:02;;;;;;;11.30;5.30;;;;;;;2.16;95.55;98261.32;107911;1281;24386;-78
2023/12/17 03:10:30;;;;;;;11.90;6.00;;;;;;;2.10;95.42;98265.80;107827;1281;215411;-78
2023/12/17 03:12:59;;;;;;;10.30;6.40;;;;;;;2.11;95.54;98265.61;107942;1281;22621;-78
2023/12/17 03:15:27;;;;;;;11.10;5.90;;;;;;;2.16;95.76;98262.53;107957;1281;22537;-78
2023/12/17 03:17:55;;;;;;;11.00;6.80;;;;;;;2.24;95.82;98268.14;107914;1275;25251;-78
2023/12/17 03:20:23;;;;;;;10.50;6.70;;;;;;;2.30;95.77;98273.72;107968;1281;22536;-78
2023/12/17 03:22:51;;;;;;;12.30;6.50;;;;;;;2.33;95.56;98271.25;107979;1281;25312;-78
2023/12/17 03:25:20;;;;;;;13.30;6.60;;;;;;;2.30;95.37;98261.33;107920;1280;22534;-78
2023/12/17 03:27:48;;;;;;;8.40;4.90;;;;;;;2.26;95.27;98259.04;107937;1282;22527;-78
2023/12/17 03:30:16;;;;;;;12.90;6.60;;;;;;;2.23;95.25;98255.88;107944;1281;22533;-78
2023/12/17 03:32:47;;;;;;;12.60;6.60;;;;;;;2.29;95.30;98242.60;107999;1281;22651;-78
2023/12/17 03:35:15;;;;;;;11.00;6.70;;;;;;;2.33;95.16;98241.27;107978;1281;22566;-78
2023/12/17 03:37:43;;;;;;;7.80;4.70;;;;;;;2.33;95.11;98238.52;107994;1281;22591;-78
2023/12/17 03:40:13;;;;;;;12.70;7.80;;;;;;;2.32;94.84;98230.67;107999;1274;23011;-78
2023/12/17 03:42:43;;;;;;;13.10;7.40;;;;;;;2.27;94.48;98218.50;107898;1277;26441;-78
2023/12/17 03:45:14;;;;;;;12.90;6.90;;;;;;;2.16;94.09;98225.58;107995;1281;22655;-78
2023/12/17 03:47:46;;;;;;;19.00;7.90;;;;;;;2.04;93.78;98215.99;107955;1281;27306;-78
2023/12/17 03:50:16;;;;;;;13.10;7.00;;;;;;;1.98;93.95;98212.55;107985;1281;22552;-78
2023/12/17 03:52:47;;;;;;;12.90;7.30;;;;;;;1.94;94.13;98190.55;107983;1278;22655;-78
2023/12/17 03:55:18;;;;;;;11.90;6.90;;;;;;;1.90;94.51;98184.01;107973;1274;22540;-77
2023/12/17 03:57:47;;;;;;;12.90;7.40;;;;;;;1.89;94.63;98162.39;107963;1281;24241;-78
2023/12/17 04:00:16;;;;;;;11.40;7.60;;;;;;;1.90;94.80;98167.47;107939;1277;22622;-78
2023/12/17 04:02:44;;;;;;;11.30;7.50;;;;;;;1.90;94.96;98172.34;107917;1278;24810;-78
2023/12/17 04:05:13;;;;;;;10.50;7.30;;;;;;;1.90;95.10;98167.55;107945;1281;22605;-78
2023/12/17 04:07:41;;;;;;;15.30;6.90;;;;;;;1.88;95.03;98167.86;107968;1281;24349;-78
2023/12/17 04:10:13;;;;;;;15.00;8.60;;;;;;;1.89;95.37;98156.64;107991;1278;25257;-78
2023/12/17 04:12:41;;;;;;;14.10;6.00;;;;;;;1.92;95.52;98153.09;107945;1281;25429;-78
2023/12/17 04:15:15;;;;;;;17.50;8.30;;;;;;;1.93;95.49;98154.90;107946;1281;22558;-78
2023/12/17 04:17:43;;;;;;;10.80;6.40;;;;;;;1.97;95.70;98162.31;107933;1281;22589;-78
2023/12/17 04:20:12;;;;;;;15.90;6.90;;;;;;;2.00;95.55;98170.32;107947;1281;23353;-77
2023/12/17 04:22:41;;;;;;;12.30;6.80;;;;;;;2.01;95.53;98179.75;107941;1277;23038;-78
2023/12/17 04:25:10;;;;;;;10.00;5.60;;;;;;;2.03;95.67;98177.92;107965;1281;25191;-78
2023/12/17 04:27:40;;;;;;;13.10;6.40;;;;;;;2.04;95.76;98193.62;107907;1279;25274;-78
2023/12/17 04:30:11;;;;;;;14.50;9.70;;;;;;;2.06;95.79;98200.04;107943;1275;22539;-78
2023/12/17 04:32:42;;;;;;;10.10;5.60;;;;;;;2.09;95.89;98186.42;108022;1281;22537;-77
2023/12/17 04:35:18;;;;;;;13.80;8.20;;;;;;;2.13;95.77;98182.82;107973;1281;22572;-78
2023/12/17 04:37:46;;;;;;;16.60;9.10;;;;;;;2.15;95.86;98202.11;107974;1281;22553;-78
2023/12/17 04:40:17;;;;;;;15.30;8.90;;;;;;;2.16;95.88;98195.73;107964;1281;22531;-78
2023/12/17 04:42:45;;;;;;;12.50;5.40;;;;;;;2.17;95.74;98205.71;107930;1281;22540;-79
2023/12/17 04:45:14;;;;;;;11.10;6.90;;;;;;;2.20;95.85;98201.19;107956;1275;22576;-78
2023/12/17 04:47:42;;;;;;;10.50;6.70;;;;;;;2.19;95.73;98196.59;107934;1281;21867;-78
2023/12/17 04:50:10;;;;;;;15.10;8.00;;;;;;;2.16;95.62;98195.16;107929;1275;22549;-78
2023/12/17 04:52:39;;;;;;;13.40;7.40;;;;;;;2.17;95.75;98194.89;107973;1274;22596;-78
2023/12/17 04:55:09;;;;;;;17.40;8.60;;;;;;;2.18;95.83;98185.03;107995;1281;22602;-78
2023/12/17 04:57:37;;;;;;;14.60;7.30;;;;;;;2.19;95.87;98181.21;107979;1274;25223;-78
2023/12/17 05:00:09;;;;;;;11.90;7.70;;;;;;;2.19;95.96;98184.64;107979;1281;22579;-78
2023/12/17 05:02:38;;;;;;;10.10;6.20;;;;;;;2.22;95.90;98183.17;107962;1277;22713;-78
2023/12/17 05:05:08;;;;;;;11.20;8.20;;;;;;;2.23;96.15;98187.53;107964;1282;24217;-78
2023/12/17 05:07:36;;;;;;;13.30;8.10;;;;;;;2.33;96.33;98188.33;107955;1281;22543;-78
2023/12/17 05:10:15;;;;;;;16.20;7.40;;;;;;;2.35;96.18;98183.02;107963;1281;22533;-78
2023/12/17 05:12:45;;;;;;;12.20;6.60;;;;;;;2.36;96.13;98185.17;107934;1281;24238;-78
2023/12/17 05:15:16;;;;;;;11.50;5.80;;;;;;;2.36;96.20;98167.02;107973;1281;22552;-78
2023/12/17 05:17:45;;;;;;;12.30;6.40;;;;;;;2.36;96.17;98154.45;107967;1263;22574;-78
2023/12/17 05:20:14;;;;;;;12.10;8.50;;;;;;;2.32;95.95;98153.33;107915;1281;25342;-78
2023/12/17 05:22:42;;;;;;;11.30;6.60;;;;;;;2.27;96.00;98147.17;107992;1281;22577;-78
2023/12/17 05:25:11;;;;;;;13.10;6.50;;;;;;;2.32;96.25;98143.70;107947;1281;22667;-78
2023/12/17 05:27:42;;;;;;;12.10;7.30;;;;;;;2.38;96.39;98144.15;107918;1281;22585;-78
2023/12/17 05:30:12;;;;;;;14.00;8.40;;;;;;;2.44;96.46;98151.98;107973;1281;25476;-78
2023/12/17 05:32:41;;;;;;;13.70;7.70;;;;;;;2.50;96.51;98160.00;107959;1274;22531;-78
2023/12/17 05:35:10;;;;;;;10.20;7.00;;;;;;;2.46;96.23;98155.23;107959;1281;22545;-78
2023/12/17 05:37:41;;;;;;;13.00;8.30;;;;;;;2.45;96.32;98165.92;107965;1281;22533;-78
2023/12/17 05:40:10;;;;;;;10.80;6.80;;;;;;;2.46;96.51;98172.70;107953;1274;22546;-78
2023/12/17 05:42:40;;;;;;;;;;;;;;;2.51;96.58;98171.40;107965;1281;22509;-78
2023/12/17 05:45:11;;;;;;;9.20;6.40;;;;;;;2.58;96.83;98167.94;107970;1274;22576;-78
2023/12/17 05:47:40;;;;;;;15.30;3.90;;;;;;;2.64;96.64;98167.85;107944;1281;23372;-78
2023/12/17 05:50:12;;;;;;;9.70;6.90;;;;;;;2.74;96.68;98181.60;107948;1281;22544;-78
2023/12/17 05:52:40;;;;;;;11.30;7.20;;;;;;;2.75;96.47;98178.98;107956;1281;22540;-78
2023/12/17 05:55:09;;;;;;;10.80;6.00;;;;;;;2.73;96.40;98177.80;107971;1281;22511;-78
2023/12/17 05:57:37;;;;;;;11.40;7.20;;;;;;;2.78;96.62;98178.88;107936;1281;26608;-78
2023/12/17 06:00:11;;;;;;;9.90;5.70;;;;;;;2.77;96.28;98176.94;107924;1281;22531;-78
2023/12/17 06:02:40;;;;;;;11.10;5.60;;;;;;;2.77;96.37;98189.23;108099;1281;22536;-78
2023/12/17 06:05:10;;;;;;;11.60;5.70;;;;;;;2.78;96.29;98184.40;107961;1281;22575;-78
2023/12/17 06:07:40;;;;;;;9.40;6.10;;;;;;;2.85;96.34;98190.79;107984;1281;22557;-78
2023/12/17 06:10:10;;;;;;;13.70;8.50;;;;;;;2.91;96.21;98188.98;107971;1281;24233;-78
2023/12/17 06:12:38;;;;;;;12.60;6.30;;;;;;;2.93;95.98;98195.11;108038;1274;22537;-78
2023/12/17 06:15:10;;;;;;;17.20;8.70;;;;;;;2.95;95.80;98200.12;107925;1278;22559;-78
2023/12/17 06:17:41;;;;;;;13.50;7.80;;;;;;;2.93;95.63;98210.38;107954;1281;22590;-78
2023/12/17 06:20:11;;;;;;;14.00;8.30;;;;;;;2.92;95.45;98200.98;107953;1281;24260;-78
2023/12/17 06:22:40;;;;;;;13.20;4.70;;;;;;;2.94;95.38;98200.89;107988;1277;22536;-78
2023/12/17 06:25:09;;;;;;;9.40;6.50;;;;;;;2.99;95.42;98206.33;107970;1274;22733;-78
2023/12/17 06:27:40;;;;;;;8.10;5.00;;;;;;;2.95;95.19;98206.02;107948;1281;22527;-78
2023/12/17 06:30:22;;;;;;;7.60;5.30;;;;;;;2.93;95.21;98210.66;107973;1281;22618;-78
2023/12/17 06:32:51;;;;;;;13.20;7.70;;;;;;;2.93;95.28;98204.74;107928;1281;24293;-78
2023/12/17 06:35:19;;;;;;;9.70;5.30;;;;;;;2.92;95.24;98204.17;107913;1281;22552;-78
2023/12/17 06:37:48;;;;;;;9.30;4.80;;;;;;;2.97;95.45;98214.41;107937;1281;22569;-78
2023/12/17 06:40:17;;;;;;;9.90;6.50;;;;;;;3.03;95.38;98221.06;107945;1282;26227;-78
2023/12/17 06:42:46;;;;;;;11.60;8.00;;;;;;;3.04;95.14;98218.58;107946;1281;22530;-78
2023/12/17 06:45:15;;;;;;;9.50;5.80;;;;;;;3.03;95.06;98222.04;107927;1281;25281;-78
2023/12/17 06:47:45;;;;;;;13.50;7.70;;;;;;;2.97;94.87;98228.55;107955;1281;22546;-78
2023/12/17 06:50:13;;;;;;;;;;;;;;;2.84;94.47;98224.30;107962;1274;22518;-78
2023/12/17 06:52:41;;;;;;;14.40;6.30;;;;;;;2.74;94.42;98230.73;107962;1281;22552;-78
2023/12/17 06:55:10;;;;;;;15.70;7.30;;;;;;;2.64;94.54;98232.05;107901;1276;22659;-78
2023/12/17 06:57:46;;;;;;;10.30;6.50;;;;;;;2.60;94.86;98223.25;107879;1281;26223;-78
2023/12/17 07:00:19;;;;;;;11.80;6.60;;;;;;;2.62;95.19;98220.44;107959;1281;25311;-78
2023/12/17 07:02:47;;;;;;;10.10;6.00;;;;;;;2.71;95.27;98226.73;107934;1274;22543;-78
2023/12/17 07:05:16;;;;;;;10.20;6.80;;;;;;;2.70;95.22;98227.21;107966;1282;22538;-78
2023/12/17 07:07:46;;;;;;;10.70;5.20;;;;;;;2.68;95.31;98222.28;107960;1274;22576;-78
2023/12/17 07:10:16;;;;;;;12.70;6.20;;;;;;;2.64;95.37;98218.40;108059;1281;24438;-78
2023/12/17 07:12:47;;;;;;;10.30;5.60;;;;;;;2.69;95.55;98230.72;107944;1279;22556;-79
2023/12/17 07:15:15;;;;;;;12.20;6.50;;;;;;;2.71;95.51;98221.66;107973;1279;25403;-78
2023/12/17 07:17:44;;;;;;;10.10;5.90;;;;;;;2.68;95.39;98228.05;107924;1281;22551;-78
2023/12/17 07:20:13;;;;;;;10.20;5.50;;;;;;;2.68;95.66;98236.65;107968;1281;25098;-78
2023/12/17 07:22:43;;;;;;;11.10;5.60;;;;;;;2.72;95.67;98236.73;107957;1281;22532;-78
2023/12/17 07:25:11;;;;;;;12.10;6.90;;;;;;;2.73;95.71;98241.85;107982;1281;22559;-78
2023/12/17 07:27:40;;;;;;;16.30;6.20;;;;;;;2.85;96.09;98240.15;107955;1281;22760;-79
2023/12/17 07:30:11;;;;;;;16.30;5.90;;;;;;;3.04;96.21;98245.46;108041;1274;24748;-79
2023/12/17 07:32:39;;;;;;;11.70;6.80;;;;;;;3.15;95.95;98246.20;107969;1281;25268;-78
2023/12/17 07:35:09;;;;;;;11.00;6.20;;;;;;;3.25;95.72;98254.56;107996;1281;23001;-78
2023/12/17 07:37:38;;;;;;;12.00;7.20;;;;;;;3.38;95.74;98242.64;107984;1281;22560;-78
2023/12/17 07:40:11;;;;;;;11.40;6.30;;;;;;;3.47;95.29;98251.00;107941;1281;22548;-78
2023/12/17 07:42:41;;;;;;;12.70;5.10;;;;;;;3.51;95.39;98254.58;108030;1281;22553;-78
2023/12/17 07:45:11;;;;;;;8.60;5.70;;;;;;;3.55;94.81;98255.30;107980;1281;25017;-78
2023/12/17 07:47:38;;;;;;;;;;;;;;;3.52;94.38;98270.89;107965;1281;23098;-78
2023/12/17 07:50:09;;;;;;;8.80;5.50;;;;;;;3.63;94.92;98266.72;107958;1274;25257;-78
2023/12/17 07:52:40;;;;;;;9.80;6.70;;;;;;;3.78;94.79;98266.19;107961;1274;25350;-78
2023/12/17 07:55:10;;;;;;;9.90;6.30;;;;;;;3.80;94.38;98257.70;107951;1275;24373;-78
2023/12/17 07:57:38;;;;;;;11.70;7.40;;;;;;;3.71;93.68;98258.38;107944;1274;23078;-78
2023/12/17 08:00:11;;;;;;;14.50;7.80;;;;;;;3.69;92.95;98245.16;108065;1274;22648;-78
2023/12/17 08:02:42;;;;;;;10.70;6.60;;;;;;;3.61;92.66;98260.36;108076;1281;25400;-78
2023/12/17 08:05:11;;;;;;;12.00;8.10;;;;;;;3.65;93.05;98272.26;107954;1282;22623;-78
2023/12/17 08:07:39;;;;;;;12.00;7.50;;;;;;;3.78;93.62;98271.64;107876;1281;27825;-78
2023/12/17 08:10:08;;;;;;;11.30;7.40;;;;;;;3.93;93.78;98264.73;107908;1275;22649;-78
2023/12/17 08:12:39;;;;;;;12.20;6.20;;;;;;;3.95;93.56;98261.40;107953;1280;22552;-78
2023/12/17 08:15:09;;;;;;;9.60;6.00;;;;;;;3.88;92.93;98266.48;107941;1274;22543;-78
2023/12/17 08:17:38;;;;;;;12.30;6.70;;;;;;;3.83;92.39;98262.50;108040;1274;22564;-78
2023/12/17 08:20:09;;;;;;;14.50;7.70;;;;;;;3.73;91.84;98254.06;108061;1282;24256;-78
2023/12/17 08:22:38;;;;;;;12.30;7.60;;;;;;;3.62;91.77;98257.27;108079;1277;22648;-78
2023/12/17 08:25:08;;;;;;;12.00;6.80;;;;;;;3.57;92.01;98248.53;108087;1280;22517;-78
2023/12/17 08:27:37;;;;;;;11.90;8.00;;;;;;;3.53;92.35;98253.15;108087;1274;22555;-77
2023/12/17 08:30:08;;;;;;;13.50;8.10;;;;;;;3.54;92.41;98265.86;108003;1281;23123;-78
2023/12/17 08:32:38;;;;;;;14.90;8.00;;;;;;;3.62;93.13;98262.39;108111;1281;23176;-78
2023/12/17 08:35:10;;;;;;;11.10;5.50;;;;;;;3.71;93.21;98261.92;108036;1274;22547;-78
2023/12/17 08:37:39;;;;;;;13.60;8.10;;;;;;;3.82;93.48;98259.47;108018;1281;26107;-78
2023/12/17 08:40:09;;;;;;;14.80;10.20;;;;;;;3.87;93.09;98262.24;108079;1281;25322;-78
2023/12/17 08:42:40;;;;;;;12.50;8.70;;;;;;;3.89;93.19;98260.48;108080;1281;23773;-78
2023/12/17 08:45:10;;;;;;;11.90;6.60;;;;;;;3.94;93.44;98255.27;108075;1275;25311;-78
2023/12/17 08:47:40;;;;;;;;;;;;;;;4.08;93.63;98247.72;108130;1282;25393;-78
2023/12/17 08:50:10;;;;;;;11.60;5.80;;;;;;;4.12;93.46;98236.80;108096;1281;25301;-78
2023/12/17 08:52:39;;;;;;;12.10;6.70;;;;;;;4.10;93.05;98245.12;108105;1268;22530;-78
2023/12/17 08:55:11;;;;;;;15.60;6.30;;;;;;;4.04;92.40;98248.95;108042;1275;25281;-79
2023/12/17 08:57:40;;;;;;;13.60;7.20;;;;;;;4.00;92.12;98240.42;108056;1281;22610;-78
2023/12/17 09:00:12;;;;;;;11.40;7.70;;;;;;;4.00;92.15;98243.85;108074;1278;27700;-78
2023/12/17 09:02:40;;;;;;;11.20;8.20;;;;;;;4.04;92.47;98243.98;108127;1281;25444;-78
2023/12/17 09:05:09;;;;;;;13.50;8.40;;;;;;;4.05;92.14;98250.69;108095;1276;25051;-78
2023/12/17 09:07:37;;;;;;;;;;;;;;;4.11;92.31;98244.23;108156;1282;22512;-78
2023/12/17 09:10:10;;;;;;;12.70;5.40;;;;;;;4.23;92.67;98242.27;108055;1281;23811;-78
2023/12/17 09:12:39;;;;;;;12.20;5.80;;;;;;;4.33;92.51;98247.95;108113;1281;22512;-78
2023/12/17 09:15:08;;;;;;;13.20;8.00;;;;;;;4.30;92.27;98243.88;108062;1282;25504;-78
2023/12/17 09:17:42;;;;;;;12.10;7.00;;;;;;;4.26;91.89;98244.40;108049;1277;28080;-79
2023/12/17 09:20:11;;;;;;;15.00;5.20;;;;;;;4.36;92.33;98247.29;108079;1281;25429;-79
2023/12/17 09:22:40;;;;;;;10.10;6.50;;;;;;;4.43;92.04;98252.80;108106;1281;22534;-78
2023/12/17 09:25:10;;;;;;;11.70;6.10;;;;;;;4.45;91.33;98244.48;108049;1280;24204;-79
2023/12/17 09:27:40;;;;;;;;;;;;;;;4.50;91.11;98238.06;108074;1274;22538;-80
2023/12/17 09:30:10;;;;;;;9.20;5.60;;;;;;;4.51;90.73;98249.67;108071;1281;22607;-79
2023/12/17 09:32:38;;;;;;;9.60;4.70;;;;;;;4.53;90.83;98252.70;108121;1282;22561;-79
2023/12/17 09:35:10;;;;;;;10.40;5.20;;;;;;;4.63;91.17;98260.92;108100;1281;22573;-79
2023/12/17 09:37:39;;;;;;;7.10;5.00;;;;;;;4.71;91.27;98258.39;108117;1281;23269;-79
2023/12/17 09:40:11;;;;;;;10.60;4.90;;;;;;;4.79;90.74;98258.84;108076;1280;22529;-79
2023/12/17 09:42:42;;;;;;;14.00;5.80;;;;;;;4.84;90.97;98264.64;108078;1282;22545;-79
2023/12/17 09:45:14;;;;;;;9.50;5.60;;;;;;;4.91;91.32;98264.14;108104;1282;24128;-80
2023/12/17 09:47:43;;;;;;;13.20;7.10;;;;;;;4.97;91.08;98263.11;108091;1282;22548;-79
2023/12/17 09:50:16;;;;;;;9.70;5.30;;;;;;;5.00;90.85;98255.70;108077;1281;22571;-79
2023/12/17 09:52:45;;;;;;;11.80;7.10;;;;;;;5.04;90.57;98262.73;108102;1281;22524;-79
2023/12/17 09:55:16;;;;;;;12.80;6.40;;;;;;;5.07;90.82;98255.50;108060;1281;22835;-80
2023/12/17 09:57:44;;;;;;;12.50;6.40;;;;;;;5.08;90.53;98256.52;108101;1281;22559;-79
2023/12/17 10:00:15;;;;;;;12.10;6.90;;;;;;;5.11;90.44;98254.21;108065;1273;22526;-79
2023/12/17 10:02:44;;;;;;;9.10;4.80;;;;;;;5.12;90.52;98263.36;108091;1281;22573;-79
2023/12/17 10:05:14;;;;;;;11.00;6.70;;;;;;;5.17;90.22;98261.65;108125;1281;22600;-79
2023/12/17 10:07:43;;;;;;;13.50;5.50;;;;;;;5.21;90.19;98263.63;108022;1279;24227;-79
2023/12/17 10:10:11;;;;;;;11.30;6.20;;;;;;;5.28;90.35;98259.41;108084;1281;22577;-78
2023/12/17 10:12:40;;;;;;;12.80;5.40;;;;;;;5.36;90.62;98258.98;108095;1274;22739;-79
2023/12/17 10:15:11;;;;;;;10.70;4.80;;;;;;;5.42;90.48;98260.87;108082;1281;23557;-77
2023/12/17 10:17:41;;;;;;;8.20;5.10;;;;;;;5.46;89.56;98260.98;108031;1281;25455;-78
2023/12/17 10:20:17;;;;;;;9.00;4.80;;;;;;;5.50;89.56;98260.94;108067;1282;22581;-78
2023/12/17 10:22:58;;;;;;;7.50;3.80;;;;;;;5.54;89.46;98260.94;108055;1282;23821;-78
2023/12/17 10:25:27;;;;;;;8.30;5.00;;;;;;;5.56;89.03;98253.40;108101;1281;22850;-78
2023/12/17 10:27:57;;;;;;;8.40;5.00;;;;;;;5.65;89.26;98255.00;108064;1281;23245;-79
2023/12/17 10:30:28;;;;;;;8.40;4.30;;;;;;;5.81;89.30;98253.62;108115;1275;22532;-78
2023/12/17 10:32:58;;;;;;;8.20;4.70;;;;;;;5.85;88.29;98247.77;108149;1279;24017;-78
2023/12/17 10:35:35;;;;;;;11.10;6.00;;;;;;;5.84;87.65;98256.36;108056;1281;23653;-78
2023/12/17 10:38:06;;;;;;;10.10;5.80;;;;;;;5.77;87.40;98256.06;108095;1282;22583;-79
2023/12/17 10:40:42;;;;;;;9.50;4.10;;;;;;;5.67;87.81;98263.42;108099;1282;22724;-79
2023/12/17 10:43:14;;;;;;;8.90;4.50;;;;;;;5.58;87.76;98269.81;108053;1279;25257;-79
2023/12/17 10:45:46;;;;;;;7.80;4.60;;;;;;;5.54;87.90;98276.02;108050;1281;24276;-79
2023/12/17 10:48:16;;;;;;;8.40;4.20;;;;;;;5.50;88.17;98276.37;108055;1279;22655;-79
2023/12/17 10:50:47;;;;;;;11.10;4.60;;;;;;;5.50;88.40;98264.79;108048;1281;22595;-80
2023/12/17 10:53:15;;;;;;;6.60;3.80;;;;;;;5.50;88.59;98271.67;108027;1282;22595;-79
2023/12/17 10:55:44;;;;;;;10.60;6.30;;;;;;;5.47;88.61;98266.23;108045;1281;22605;-78
2023/12/17 10:58:18;;;;;;;9.10;4.70;;;;;;;5.47;88.77;98261.38;108112;1281;23028;-79
2023/12/17 11:00:48;;;;;;;6.90;4.60;;;;;;;5.52;89.07;98261.18;108161;1282;22542;-80
2023/12/17 11:03:17;;;;;;;9.40;4.80;;;;;;;5.55;89.29;98253.13;108105;1275;22533;-79
2023/12/17 11:05:57;;;;;;;12.10;6.40;;;;;;;5.56;89.34;98257.41;108065;1276;22533;-79
2023/12/17 11:08:26;;;;;;;8.20;4.50;;;;;;;5.59;89.16;98243.23;108103;1275;24265;-79
2023/12/17 11:10:58;;;;;;;10.90;5.30;;;;;;;5.62;89.20;98245.57;108198;1281;22541;-79
2023/12/17 11:13:26;;;;;;;8.70;4.80;;;;;;;5.62;89.10;98246.13;108037;1281;22735;-79
2023/12/17 11:15:56;;;;;;;12.30;5.80;;;;;;;5.64;89.23;98240.44;108090;1282;22642;-79
2023/12/17 11:18:42;;;;;;;7.60;4.00;;;;;;;5.71;89.30;98241.98;107950;1276;22566;-79
2023/12/17 11:21:11;;;;;;;9.30;4.60;;;;;;;5.80;89.13;98236.91;108074;1281;22534;-79
2023/12/17 11:23:40;;;;;;;7.30;4.40;;;;;;;5.87;88.96;98233.96;108075;1282;22649;-79
2023/12/17 11:26:11;;;;;;;10.00;4.80;;;;;;;5.99;89.14;98223.95;108065;1261;24862;-79
2023/12/17 11:28:40;;;;;;;11.10;3.80;;;;;;;6.10;88.39;98215.52;108080;1282;22734;-79
2023/12/17 11:31:09;;;;;;;7.40;4.20;;;;;;;6.15;87.98;98210.50;108134;1282;22525;-78
2023/12/17 11:33:38;;;;;;;7.40;4.60;;;;;;;6.25;87.41;98203.86;108108;1280;24936;-79
2023/12/17 11:36:11;;;;;;;9.70;4.40;;;;;;;6.35;86.81;98204.61;108060;1281;39542;-79
2023/12/17 11:38:39;;;;;;;6.70;4.00;;;;;;;6.48;86.19;98206.40;108138;1275;25895;-80
2023/12/17 11:41:08;;;;;;;6.40;3.90;;;;;;;6.59;85.94;98211.42;108089;1280;22651;-80